createdAt,value
2018-06-08T00:00:20.576Z,24.13
2018-06-08T00:02:47.707Z,24.14
2018-06-08T00:05:15.005Z,24.10
2018-06-08T00:07:42.135Z,24.18
2018-06-08T00:10:09.219Z,24.05
2018-06-08T00:12:36.335Z,23.93
2018-06-08T00:15:04.133Z,23.88
2018-06-08T00:17:31.323Z,23.82
2018-06-08T00:19:58.627Z,23.68
2018-06-08T00:22:25.788Z,23.61
2018-06-08T00:24:52.882Z,23.61
2018-06-08T00:27:19.969Z,23.48
2018-06-08T00:29:47.163Z,23.56
2018-06-08T00:32:14.338Z,23.47
2018-06-08T00:34:41.489Z,23.35
2018-06-08T00:37:08.624Z,23.52
2018-06-08T00:39:35.866Z,23.46
2018-06-08T00:42:03.124Z,23.61
2018-06-08T00:44:30.382Z,23.46
2018-06-08T00:46:57.615Z,23.49
2018-06-08T00:49:24.756Z,23.42
2018-06-08T00:51:51.854Z,23.32
2018-06-08T00:54:18.954Z,23.43
2018-06-08T00:56:57.539Z,23.31
2018-06-08T00:59:24.719Z,23.19
2018-06-08T01:01:51.954Z,23.18
2018-06-08T01:04:19.196Z,23.22
2018-06-08T01:06:46.298Z,23.20
2018-06-08T01:09:13.364Z,23.08
2018-06-08T01:11:40.584Z,22.72
2018-06-08T01:14:07.795Z,22.61
2018-06-08T01:16:35.009Z,22.68
2018-06-08T01:19:02.126Z,22.68
2018-06-08T01:21:29.296Z,22.85
2018-06-08T01:23:56.433Z,22.72
2018-06-08T01:26:23.682Z,22.38
2018-06-08T01:28:50.803Z,22.55
2018-06-08T01:31:18.011Z,22.59
2018-06-08T01:33:45.191Z,22.68
2018-06-08T01:36:12.321Z,22.31
2018-06-08T01:38:39.544Z,22.21
2018-06-08T01:41:06.702Z,22.52
2018-06-08T01:43:33.767Z,22.41
2018-06-08T01:46:00.872Z,22.43
2018-06-08T01:48:27.954Z,22.44
2018-06-08T01:50:55.087Z,22.43
2018-06-08T01:53:22.218Z,22.16
2018-06-08T01:55:49.370Z,22.24
2018-06-08T01:58:16.479Z,22.01
2018-06-08T02:00:43.619Z,22.06
2018-06-08T02:03:10.821Z,22.08
2018-06-08T02:05:38.021Z,22.17
2018-06-08T02:08:05.140Z,22.08
2018-06-08T02:10:32.196Z,22.07
2018-06-08T02:12:59.430Z,22.09
2018-06-08T02:15:26.576Z,22.09
2018-06-08T02:17:53.692Z,21.85
2018-06-08T02:20:21.397Z,21.60
2018-06-08T02:22:48.545Z,21.49
2018-06-08T02:25:15.777Z,21.38
2018-06-08T02:27:43.051Z,21.48
2018-06-08T02:30:10.165Z,21.67
2018-06-08T02:32:37.260Z,21.83
2018-06-08T02:35:04.465Z,21.63
2018-06-08T02:37:31.569Z,21.51
2018-06-08T02:39:58.715Z,21.50
2018-06-08T02:42:26.500Z,21.64
2018-06-08T02:44:53.576Z,21.52
2018-06-08T02:47:20.769Z,21.26
2018-06-08T02:49:48.011Z,21.52
2018-06-08T02:52:15.228Z,21.44
2018-06-08T02:54:42.306Z,21.47
2018-06-08T02:57:09.421Z,21.38
2018-06-08T02:59:36.559Z,21.25
2018-06-08T03:02:03.734Z,21.32
2018-06-08T03:04:30.826Z,21.36
2018-06-08T03:06:57.957Z,21.35
2018-06-08T03:09:25.192Z,21.31
2018-06-08T03:11:52.244Z,21.29
2018-06-08T03:14:19.353Z,21.24
2018-06-08T03:16:46.516Z,21.19
2018-06-08T03:19:13.704Z,21.04
2018-06-08T03:21:40.837Z,21.03
2018-06-08T03:24:07.937Z,20.82
2018-06-08T03:26:35.100Z,20.53
2018-06-08T03:29:02.263Z,20.75
2018-06-08T03:31:29.711Z,20.77
2018-06-08T03:33:56.916Z,20.44
2018-06-08T03:36:24.229Z,20.65
2018-06-08T03:38:51.484Z,20.90
2018-06-08T03:41:18.597Z,20.98
2018-06-08T03:43:45.768Z,20.99
2018-06-08T03:46:12.909Z,20.88
2018-06-08T03:48:39.992Z,20.75
2018-06-08T03:51:07.147Z,20.75
2018-06-08T03:53:34.272Z,20.63
2018-06-08T03:56:01.503Z,20.71
2018-06-08T03:58:29.366Z,20.56
2018-06-08T04:00:56.449Z,20.93
2018-06-08T04:03:23.671Z,22.59
2018-06-08T04:05:50.972Z,23.63
2018-06-08T04:08:18.194Z,24.16
2018-06-08T04:10:45.453Z,24.71
2018-06-08T04:13:12.593Z,25.22
2018-06-08T04:15:39.652Z,25.72
2018-06-08T04:18:06.786Z,25.58
2018-06-08T04:20:33.838Z,24.84
2018-06-08T04:23:00.929Z,22.75
2018-06-08T04:25:28.155Z,22.36
2018-06-08T04:27:55.365Z,22.14
2018-06-08T04:30:22.464Z,21.91
2018-06-08T04:32:49.628Z,21.88
2018-06-08T04:35:16.761Z,22.92
2018-06-08T04:37:43.888Z,22.99
2018-06-08T04:40:10.957Z,22.73
2018-06-08T04:42:38.136Z,22.33
2018-06-08T04:45:05.321Z,22.22
2018-06-08T04:47:32.425Z,22.13
2018-06-08T04:49:59.563Z,22.17
2018-06-08T04:52:26.758Z,22.06
2018-06-08T04:54:53.975Z,21.95
2018-06-08T04:57:21.087Z,21.82
2018-06-08T04:59:48.177Z,21.93
2018-06-08T05:02:15.383Z,21.74
2018-06-08T05:04:42.527Z,21.77
2018-06-08T05:07:09.696Z,21.75
2018-06-08T05:09:36.805Z,21.84
2018-06-08T05:12:03.941Z,21.85
2018-06-08T05:14:31.102Z,21.90
2018-06-08T05:16:58.161Z,21.85
2018-06-08T05:19:25.272Z,21.85
2018-06-08T05:21:52.447Z,21.80
2018-06-08T05:24:19.513Z,21.60
2018-06-08T05:26:46.625Z,21.66
2018-06-08T05:29:14.012Z,21.84
2018-06-08T05:31:41.128Z,21.79
2018-06-08T05:34:08.199Z,21.84
2018-06-08T05:36:36.032Z,21.72
2018-06-08T05:39:05.197Z,21.77
2018-06-08T05:41:32.294Z,21.74
2018-06-08T05:43:59.443Z,21.78
2018-06-08T05:46:26.541Z,21.89
2018-06-08T05:48:53.672Z,21.86
2018-06-08T05:51:20.755Z,21.86
2018-06-08T05:53:48.042Z,21.87
2018-06-08T05:56:15.152Z,21.87
2018-06-08T05:58:42.212Z,22.02
2018-06-08T06:01:09.299Z,22.06
2018-06-08T06:03:36.362Z,22.03
2018-06-08T06:06:03.465Z,21.95
2018-06-08T06:08:30.572Z,21.96
2018-06-08T06:10:57.600Z,22.07
2018-06-08T06:13:25.325Z,22.09
2018-06-08T06:15:52.399Z,22.09
2018-06-08T06:18:19.460Z,22.01
2018-06-08T06:20:47.055Z,21.95
2018-06-08T06:23:14.407Z,22.12
2018-06-08T06:25:41.573Z,22.20
2018-06-08T06:28:08.648Z,22.17
2018-06-08T06:30:35.984Z,22.22
2018-06-08T06:33:03.076Z,22.26
2018-06-08T06:35:30.190Z,22.29
2018-06-08T06:37:57.346Z,22.33
2018-06-08T06:40:24.452Z,22.38
2018-06-08T06:42:51.483Z,22.36
2018-06-08T06:45:18.707Z,22.38
2018-06-08T06:47:45.796Z,22.37
2018-06-08T06:50:12.864Z,22.42
2018-06-08T06:52:39.946Z,22.44
2018-06-08T06:55:07.000Z,22.51
2018-06-08T06:57:34.171Z,22.56
2018-06-08T07:00:01.416Z,22.63
2018-06-08T07:02:28.626Z,22.62
2018-06-08T07:04:55.707Z,22.67
2018-06-08T07:07:22.751Z,22.71
2018-06-08T07:09:49.883Z,22.72
2018-06-08T07:12:17.034Z,22.78
2018-06-08T07:14:44.108Z,22.80
2018-06-08T07:17:11.328Z,22.97
2018-06-08T07:19:38.467Z,22.93
2018-06-08T07:22:05.525Z,22.83
2018-06-08T07:24:32.612Z,22.91
2018-06-08T07:26:59.725Z,22.91
2018-06-08T07:29:26.782Z,22.92
2018-06-08T07:31:54.022Z,22.86
2018-06-08T07:34:21.302Z,22.87
2018-06-08T07:36:48.523Z,23.00
2018-06-08T07:39:15.705Z,23.13
2018-06-08T07:41:42.864Z,23.32
2018-06-08T07:44:09.973Z,23.28
2018-06-08T07:46:37.178Z,23.33
2018-06-08T07:49:04.363Z,23.29
2018-06-08T07:51:31.566Z,23.25
2018-06-08T07:53:58.680Z,23.31
2018-06-08T07:56:25.761Z,23.26
2018-06-08T07:58:52.961Z,23.32
2018-06-08T08:01:20.045Z,23.56
2018-06-08T08:03:47.135Z,23.45
2018-06-08T08:06:14.391Z,23.62
2018-06-08T08:08:41.542Z,23.44
2018-06-08T08:11:08.620Z,23.48
2018-06-08T08:13:35.698Z,23.54
2018-06-08T08:16:02.887Z,23.58
2018-06-08T08:18:29.952Z,23.76
2018-06-08T08:20:57.028Z,23.63
2018-06-08T08:23:24.229Z,23.65
2018-06-08T08:25:51.392Z,24.01
2018-06-08T08:28:18.479Z,23.73
2018-06-08T08:30:45.617Z,23.77
2018-06-08T08:33:12.723Z,23.86
2018-06-08T08:35:39.836Z,23.88
2018-06-08T08:38:07.492Z,23.94
2018-06-08T08:40:35.272Z,24.07
2018-06-08T08:43:02.437Z,23.96
2018-06-08T08:45:29.688Z,24.24
2018-06-08T08:47:56.852Z,24.16
2018-06-08T08:50:24.008Z,24.29
2018-06-08T08:52:51.081Z,24.12
2018-06-08T08:55:18.329Z,24.28
2018-06-08T08:57:45.536Z,24.57
2018-06-08T09:00:12.595Z,24.68
2018-06-08T09:02:39.702Z,24.45
2018-06-08T09:05:06.839Z,24.63
2018-06-08T09:07:33.944Z,24.54
2018-06-08T09:10:01.007Z,24.54
2018-06-08T09:12:28.267Z,24.60
2018-06-08T09:14:55.487Z,24.78
2018-06-08T09:17:22.729Z,24.71
2018-06-08T09:19:49.985Z,24.74
2018-06-08T09:22:17.259Z,24.86
2018-06-08T09:24:44.365Z,25.16
2018-06-08T09:27:11.460Z,24.95
2018-06-08T09:29:38.552Z,24.96
2018-06-08T09:32:05.741Z,24.96
2018-06-08T09:34:32.808Z,24.91
2018-06-08T09:36:59.990Z,25.07
2018-06-08T09:39:27.236Z,25.30
2018-06-08T09:41:54.465Z,25.24
2018-06-08T09:44:21.724Z,25.24
2018-06-08T09:46:49.011Z,25.10
2018-06-08T09:49:16.148Z,25.17
2018-06-08T09:51:43.253Z,25.41
2018-06-08T09:54:10.336Z,25.35
2018-06-08T09:56:37.450Z,25.68
2018-06-08T09:59:04.503Z,25.54
2018-06-08T10:01:31.680Z,25.74
2018-06-08T10:03:58.899Z,25.46
2018-06-08T10:06:25.993Z,25.66
2018-06-08T10:08:53.068Z,25.58
2018-06-08T10:11:20.330Z,25.48
2018-06-08T10:13:47.365Z,25.71
2018-06-08T10:16:14.473Z,26.09
2018-06-08T10:18:41.649Z,25.95
2018-06-08T10:21:08.776Z,26.12
2018-06-08T10:23:35.914Z,26.09
2018-06-08T10:26:03.076Z,26.27
2018-06-08T10:28:30.236Z,26.15
2018-06-08T10:30:57.416Z,26.20
2018-06-08T10:33:24.525Z,26.37
2018-06-08T10:35:51.591Z,26.58
2018-06-08T10:38:18.768Z,26.76
2018-06-08T10:40:45.828Z,26.55
2018-06-08T10:43:12.920Z,26.67
2018-06-08T10:45:40.074Z,26.74
2018-06-08T10:48:07.209Z,26.59
2018-06-08T10:50:34.298Z,26.97
2018-06-08T10:53:01.453Z,26.79
2018-06-08T10:55:28.590Z,26.88
2018-06-08T10:57:55.664Z,26.66
2018-06-08T11:00:23.809Z,27.09
2018-06-08T11:03:44.760Z,27.15
2018-06-08T11:06:11.973Z,26.84
2018-06-08T11:08:39.019Z,26.57
2018-06-08T11:11:06.104Z,26.56
2018-06-08T11:13:33.272Z,26.67
2018-06-08T11:16:00.509Z,26.82
2018-06-08T11:18:27.655Z,26.82
2018-06-08T11:20:54.701Z,26.77
2018-06-08T11:23:21.786Z,26.98
2018-06-08T11:25:48.876Z,27.08
2018-06-08T11:28:16.019Z,26.92
2018-06-08T11:30:43.190Z,26.97
2018-06-08T11:33:10.392Z,26.91
2018-06-08T11:35:37.460Z,27.37
2018-06-08T11:38:04.752Z,27.34
2018-06-08T11:40:31.796Z,27.48
2018-06-08T11:42:58.910Z,27.41
2018-06-08T11:45:26.115Z,27.39
2018-06-08T11:47:53.220Z,27.45
2018-06-08T11:50:20.476Z,27.71
2018-06-08T11:52:47.628Z,27.93
2018-06-08T11:55:14.730Z,27.74
2018-06-08T11:57:42.611Z,27.95
2018-06-08T12:00:09.753Z,28.16
2018-06-08T12:02:36.800Z,28.17
2018-06-08T12:05:03.941Z,28.56
2018-06-08T12:07:31.048Z,28.44
2018-06-08T12:09:58.145Z,28.42
2018-06-08T12:12:25.266Z,28.90
2018-06-08T12:14:52.381Z,28.67
2018-06-08T12:17:19.469Z,28.58
2018-06-08T12:19:46.718Z,28.72
2018-06-08T12:22:13.812Z,28.49
2018-06-08T12:24:40.944Z,28.60
2018-06-08T12:27:08.035Z,28.73
2018-06-08T12:29:35.216Z,28.78
2018-06-08T12:32:02.339Z,28.70
2018-06-08T12:34:29.596Z,28.69
2018-06-08T12:36:56.647Z,28.95
2018-06-08T12:39:23.906Z,29.04
2018-06-08T12:41:51.004Z,29.01
2018-06-08T12:44:18.498Z,28.90
2018-06-08T12:46:45.697Z,29.00
2018-06-08T12:49:12.889Z,29.11
2018-06-08T12:51:39.960Z,29.00
2018-06-08T12:54:07.033Z,29.11
2018-06-08T12:56:34.265Z,29.18
2018-06-08T12:59:01.375Z,29.46
2018-06-08T13:01:28.692Z,29.36
2018-06-08T13:03:55.971Z,29.48
2018-06-08T13:06:23.116Z,29.50
2018-06-08T13:08:50.189Z,29.57
2018-06-08T13:11:17.288Z,29.70
2018-06-08T13:13:44.394Z,29.35
2018-06-08T13:16:11.508Z,29.36
2018-06-08T13:18:38.645Z,29.54
2018-06-08T13:21:05.756Z,29.47
2018-06-08T13:23:32.894Z,29.50
2018-06-08T13:26:00.159Z,29.29
2018-06-08T13:28:27.427Z,29.40
2018-06-08T13:30:54.650Z,29.30
2018-06-08T13:33:21.782Z,29.56
2018-06-08T13:35:49.158Z,29.42
2018-06-08T13:38:16.311Z,29.50
2018-06-08T13:40:43.434Z,29.50
2018-06-08T13:43:10.556Z,29.64
2018-06-08T13:45:37.767Z,29.59
2018-06-08T13:48:05.164Z,29.88
2018-06-08T13:50:32.268Z,29.53
2018-06-08T13:52:59.363Z,29.55
2018-06-08T13:55:27.321Z,29.59
2018-06-08T13:57:54.520Z,29.85
2018-06-08T14:00:21.714Z,29.86
2018-06-08T14:02:48.860Z,29.69
2018-06-08T14:05:15.994Z,29.94
2018-06-08T14:07:43.188Z,30.23
2018-06-08T14:10:10.282Z,30.03
2018-06-08T14:12:37.407Z,30.03
2018-06-08T14:15:04.723Z,30.18
2018-06-08T14:17:31.798Z,29.85
2018-06-08T14:19:59.016Z,30.05
2018-06-08T14:22:26.113Z,30.16
2018-06-08T14:24:53.256Z,30.18
2018-06-08T14:27:21.242Z,30.10
2018-06-08T14:29:48.382Z,30.21
2018-06-08T14:32:15.512Z,30.14
2018-06-08T14:34:42.689Z,30.13
2018-06-08T14:37:09.996Z,29.98
2018-06-08T14:39:38.013Z,30.06
2018-06-08T14:42:05.203Z,30.04
2018-06-08T14:44:32.347Z,29.92
2018-06-08T14:46:59.611Z,29.80
2018-06-08T14:49:26.780Z,29.76
2018-06-08T14:51:53.887Z,29.75
2018-06-08T14:54:20.964Z,29.70
2018-06-08T14:56:48.249Z,29.63
2018-06-08T14:59:15.362Z,29.66
2018-06-08T15:01:42.443Z,29.69
2018-06-08T15:04:09.543Z,29.79
2018-06-08T15:06:36.740Z,29.89
2018-06-08T15:09:06.027Z,29.81
2018-06-08T15:11:33.234Z,29.64
2018-06-08T15:14:00.346Z,29.76
2018-06-08T15:16:27.767Z,29.68
2018-06-08T15:18:54.843Z,29.68
2018-06-08T15:21:22.000Z,29.54
2018-06-08T15:23:49.105Z,29.51
2018-06-08T15:26:16.165Z,29.53
2018-06-08T15:28:43.264Z,29.52
2018-06-08T15:31:10.470Z,29.44
2018-06-08T15:33:37.679Z,29.56
2018-06-08T15:36:04.806Z,29.61
2018-06-08T15:38:31.863Z,29.55
2018-06-08T15:40:59.052Z,29.63
2018-06-08T15:43:26.231Z,29.69
2018-06-08T15:45:53.358Z,29.67
2018-06-08T15:48:20.457Z,29.78
2018-06-08T15:50:47.679Z,29.70
2018-06-08T15:53:14.965Z,29.61
2018-06-08T15:55:42.136Z,29.60
2018-06-08T15:58:09.254Z,29.51
2018-06-08T16:00:36.336Z,29.64
2018-06-08T16:03:03.480Z,29.51
2018-06-08T16:05:30.591Z,29.45
2018-06-08T16:07:57.675Z,29.55
2018-06-08T16:10:24.808Z,29.46
2018-06-08T16:12:51.908Z,29.49
2018-06-08T16:15:18.993Z,29.45
2018-06-08T16:17:46.190Z,29.54
2018-06-08T16:20:13.455Z,29.48
2018-06-08T16:22:40.743Z,29.57
2018-06-08T16:25:07.800Z,29.52
2018-06-08T16:27:34.907Z,29.61
2018-06-08T16:30:02.084Z,29.48
2018-06-08T16:32:29.166Z,29.53
2018-06-08T16:34:56.318Z,29.50
2018-06-08T16:37:23.382Z,29.40
2018-06-08T16:39:50.505Z,29.51
2018-06-08T16:42:17.701Z,29.66
2018-06-08T16:44:44.816Z,29.62
2018-06-08T16:47:12.058Z,29.39
2018-06-08T16:49:39.224Z,29.30
2018-06-08T16:52:06.341Z,29.19
2018-06-08T16:54:33.442Z,29.42
2018-06-08T16:57:00.523Z,29.24
2018-06-08T16:59:28.521Z,29.25
2018-06-08T17:01:55.614Z,29.26
2018-06-08T17:04:22.738Z,29.25
2018-06-08T17:06:49.834Z,29.19
2018-06-08T17:09:16.990Z,29.11
2018-06-08T17:11:44.219Z,29.24
2018-06-08T17:14:11.561Z,29.14
2018-06-08T17:16:38.770Z,29.12
2018-06-08T17:19:05.997Z,29.04
2018-06-08T17:21:33.187Z,28.99
2018-06-08T17:24:00.229Z,28.96
2018-06-08T17:26:27.300Z,29.16
2018-06-08T17:28:54.422Z,28.91
2018-06-08T17:31:21.523Z,28.87
2018-06-08T17:33:48.636Z,28.97
2018-06-08T17:36:15.762Z,28.92
2018-06-08T17:38:43.040Z,29.05
2018-06-08T17:41:10.120Z,29.01
2018-06-08T17:43:37.841Z,28.97
2018-06-08T17:46:04.993Z,28.95
2018-06-08T17:48:32.331Z,29.00
2018-06-08T17:50:59.476Z,28.83
2018-06-08T17:53:26.597Z,28.69
2018-06-08T17:55:53.633Z,28.93
2018-06-08T17:58:20.951Z,28.93
2018-06-08T18:00:48.116Z,28.78
2018-06-08T18:03:15.375Z,28.68
2018-06-08T18:05:42.500Z,28.71
2018-06-08T18:08:09.585Z,28.68
2018-06-08T18:10:36.668Z,28.74
2018-06-08T18:13:03.775Z,28.73
2018-06-08T18:15:30.896Z,28.68
2018-06-08T18:17:58.164Z,28.75
2018-06-08T18:20:25.232Z,28.67
2018-06-08T18:22:52.340Z,28.66
2018-06-08T18:25:19.432Z,28.51
2018-06-08T18:27:46.653Z,28.57
2018-06-08T18:30:14.744Z,28.68
2018-06-08T18:32:41.865Z,28.64
2018-06-08T18:35:08.929Z,28.58
2018-06-08T18:37:37.084Z,28.52
2018-06-08T18:40:04.505Z,28.35
2018-06-08T18:42:31.708Z,28.54
2018-06-08T18:44:58.857Z,28.43
2018-06-08T18:47:25.917Z,28.55
2018-06-08T18:49:53.041Z,28.30
2018-06-08T18:52:20.176Z,28.44
2018-06-08T18:54:47.667Z,28.36
2018-06-08T18:57:14.905Z,28.31
2018-06-08T18:59:42.147Z,28.29
2018-06-08T19:02:09.469Z,28.26
2018-06-08T19:04:36.585Z,27.99
2018-06-08T19:07:03.827Z,27.68
2018-06-08T19:09:30.998Z,27.60
2018-06-08T19:11:58.262Z,27.85
2018-06-08T19:14:25.356Z,27.81
2018-06-08T19:16:52.643Z,27.75
2018-06-08T19:19:19.861Z,27.67
2018-06-08T19:21:46.925Z,27.68
2018-06-08T19:24:14.206Z,27.56
2018-06-08T19:26:41.510Z,27.57
2018-06-08T19:29:08.713Z,27.56
2018-06-08T19:31:35.901Z,27.66
2018-06-08T19:34:03.136Z,27.63
2018-06-08T19:36:30.366Z,27.52
2018-06-08T19:38:57.566Z,27.72
2018-06-08T19:41:24.701Z,27.66
2018-06-08T19:43:51.885Z,27.60
2018-06-08T19:46:19.034Z,27.41
2018-06-08T19:48:46.136Z,27.55
2018-06-08T19:51:13.408Z,27.55
2018-06-08T19:53:40.539Z,27.44
2018-06-08T19:56:07.676Z,27.54
2018-06-08T19:58:34.769Z,27.55
2018-06-08T20:01:01.943Z,27.46
2018-06-08T20:03:29.288Z,27.40
2018-06-08T20:05:56.548Z,27.40
2018-06-08T20:08:23.748Z,27.23
2018-06-08T20:10:50.831Z,27.34
2018-06-08T20:13:17.946Z,27.21
2018-06-08T20:15:45.067Z,27.24
2018-06-08T20:18:12.283Z,27.21
2018-06-08T20:20:39.459Z,27.07
2018-06-08T20:23:06.571Z,27.11
2018-06-08T20:25:33.842Z,27.05
2018-06-08T20:28:01.040Z,26.98
2018-06-08T20:30:28.271Z,26.71
2018-06-08T20:32:55.493Z,26.89
2018-06-08T20:35:22.763Z,26.83
2018-06-08T20:37:49.826Z,26.88
2018-06-08T20:40:17.008Z,26.92
2018-06-08T20:42:44.098Z,26.92
2018-06-08T20:45:11.472Z,26.84
2018-06-08T20:47:38.623Z,26.86
2018-06-08T20:50:05.720Z,26.74
2018-06-08T20:52:32.869Z,26.78
2018-06-08T20:55:00.086Z,26.67
2018-06-08T20:57:28.032Z,26.61
2018-06-08T20:59:55.189Z,26.71
2018-06-08T21:02:22.529Z,26.66
2018-06-08T21:04:49.644Z,26.60
2018-06-08T21:07:16.880Z,26.74
2018-06-08T21:09:44.230Z,26.71
2018-06-08T21:12:11.391Z,26.55
2018-06-08T21:14:38.518Z,26.57
2018-06-08T21:17:05.605Z,26.58
2018-06-08T21:19:32.764Z,26.47
2018-06-08T21:22:00.000Z,26.39
2018-06-08T21:24:27.272Z,26.33
2018-06-08T21:26:54.484Z,26.35
2018-06-08T21:29:21.808Z,26.36
2018-06-08T21:31:49.756Z,26.35
2018-06-08T21:34:16.925Z,26.35
2018-06-08T21:36:44.196Z,26.23
2018-06-08T21:39:11.325Z,26.18
2018-06-08T21:41:38.369Z,26.19
2018-06-08T21:44:05.521Z,26.31
2018-06-08T21:46:32.628Z,26.08
2018-06-08T21:48:59.767Z,26.27
2018-06-08T21:51:26.896Z,26.16
2018-06-08T21:53:54.060Z,26.13
2018-06-08T21:56:21.311Z,26.04
2018-06-08T21:58:48.439Z,26.09
2018-06-08T22:01:15.553Z,25.99
2018-06-08T22:03:42.858Z,25.98
2018-06-08T22:06:09.953Z,25.95
2018-06-08T22:08:37.170Z,26.06
2018-06-08T22:11:04.249Z,25.68
2018-06-08T22:13:31.396Z,25.87
2018-06-08T22:15:58.615Z,25.91
2018-06-08T22:18:25.852Z,25.79
2018-06-08T22:20:53.835Z,25.89
2018-06-08T22:23:20.979Z,25.80
2018-06-08T22:25:48.167Z,25.68
2018-06-08T22:28:15.396Z,25.74
2018-06-08T22:30:42.595Z,25.74
2018-06-08T22:33:09.880Z,25.55
2018-06-08T22:35:37.022Z,25.56
2018-06-08T22:38:04.150Z,25.56
2018-06-08T22:40:31.193Z,25.55
2018-06-08T22:42:58.299Z,25.52
2018-06-08T22:45:25.363Z,25.23
2018-06-08T22:47:52.540Z,25.22
2018-06-08T22:50:19.595Z,25.14
2018-06-08T22:52:46.641Z,24.94
2018-06-08T22:55:13.840Z,24.90
2018-06-08T22:57:40.944Z,24.77
2018-06-08T23:00:08.596Z,24.88
2018-06-08T23:02:35.658Z,24.55
2018-06-08T23:05:02.740Z,24.68
2018-06-08T23:07:29.817Z,24.93
2018-06-08T23:09:56.944Z,24.84
2018-06-08T23:12:24.090Z,24.82
2018-06-08T23:14:51.177Z,24.77
2018-06-08T23:17:18.331Z,24.92
2018-06-08T23:19:45.413Z,24.85
2018-06-08T23:22:12.504Z,24.84
2018-06-08T23:24:39.693Z,24.77
2018-06-08T23:27:06.819Z,24.43
2018-06-08T23:29:33.860Z,24.58
2018-06-08T23:32:01.477Z,24.48
2018-06-08T23:34:28.633Z,24.44
2018-06-08T23:36:55.691Z,24.42
2018-06-08T23:39:22.846Z,24.65
2018-06-08T23:41:49.932Z,24.48
2018-06-08T23:44:17.015Z,24.53
2018-06-08T23:46:44.067Z,24.34
2018-06-08T23:49:11.144Z,24.31
2018-06-08T23:51:38.245Z,24.49
2018-06-08T23:54:05.439Z,24.30
2018-06-08T23:56:32.565Z,24.25
2018-06-08T23:58:59.639Z,24.37
